Decoded Metar for KHBG (HATTIESBURG in MS, USA) (IATA:HBG) | Meteo·Mobile Aviation Weather
aviador You're here:

KHBG Decoded Metar

HATTIESBURG in MS, USA
Report Time2018-10-20 06:24:00
UTC Time2018-10-20 06:41:43
Flight Rules lifr LIFR
WindCalm
Visibility9999 m
Phenomena:N/A
Clouds:Broken 003 Hf
Expected CloudBase > 800 ft AGL from Temp-Dew spread
Ceiling300 ft
Temp21°C (ISA +6)
Dew Point19°C (88% RH)
QNH1019 hPa
Density Alt968 ft
Elevation144 ft
Report Wrong Elevation
Raw Report
KHBG 200624Z AUTO 00000KT 10SM BKN003 21/19 A3010 RMK AO2
T02060194=

Extra information for KHBG:More info

Metar Taf Metar & Taf Last 4 Metars F.Rules Stats Wind Profile Meteogram Temp Stats Airport Information Weather charts Add Link Nearby VenuesMetar ALERT Operation Metar Decoded Social comments

AIRNAV info for KHBG